Poultney, Vermont
Current Conditions -  °F | °C
As of 7:15 AM on Thursday 29 Jan 2015 (Local Time) from KRUT Reporting Station
Clear Clear  
Wind Chill: -15°   Ceiling: Unl
Heat Index: -4°   Visibility: 10mi
Dew Point: -6°   Wind: 5mph
Humidity: 92%   Direction: 110°ESE
Pressure: 30.28"   Gusts: NA
Location:  43.52°N, 73.24°W
Report Text: KRUT 291215Z 11004KT 10SM CLR M20/M21 A3028 RMK AO1
Loading
Personal Weather Stations






























Interactive Weather Map New forecast layout! Learn more

10-Day Weather Forecast

Advertisements
Track Severe Weather on mobile